createdAt,value
2022-10-05T00:02:55.885Z,100107.63
2022-10-05T00:05:58.455Z,100115.22
2022-10-05T00:09:01.265Z,100086.53
2022-10-05T00:12:20.532Z,100093.09
2022-10-05T00:15:23.290Z,100120.13
2022-10-05T00:18:27.009Z,100069.59
2022-10-05T00:21:29.262Z,100103.78
2022-10-05T00:24:31.533Z,100070.78
2022-10-05T00:27:38.863Z,100103.13
2022-10-05T00:30:41.167Z,100102.94
2022-10-05T00:33:43.753Z,100062.03
2022-10-05T00:36:46.361Z,100081.06
2022-10-05T00:39:49.710Z,100092.50
2022-10-05T00:42:59.785Z,100055.06
2022-10-05T00:46:19.888Z,100058.31
2022-10-05T00:49:59.530Z,100100.69
2022-10-05T00:53:26.691Z,100093.56
2022-10-05T00:56:56.879Z,100107.03
2022-10-05T01:00:09.116Z,100093.69
2022-10-05T01:03:36.909Z,100095.56
2022-10-05T01:07:06.764Z,100072.44
2022-10-05T01:10:27.999Z,100123.19
2022-10-05T01:13:48.856Z,100121.28
2022-10-05T01:17:00.084Z,100129.50
2022-10-05T01:20:28.999Z,100107.19
2022-10-05T01:23:34.333Z,100122.34
2022-10-05T01:26:55.349Z,100130.50
2022-10-05T01:30:11.255Z,100131.53
2022-10-05T01:33:23.885Z,100129.06
2022-10-05T01:37:01.660Z,100133.16
2022-10-05T01:40:25.495Z,100109.84
2022-10-05T01:43:31.860Z,100121.09
2022-10-05T01:46:40.642Z,100082.84
2022-10-05T01:49:55.244Z,100121.09
2022-10-05T01:53:37.957Z,100075.25
2022-10-05T01:56:53.112Z,100099.78
2022-10-05T01:59:58.051Z,100142.75
2022-10-05T02:03:04.875Z,100137.41
2022-10-05T02:06:15.106Z,100135.16
2022-10-05T02:09:32.211Z,100147.03
2022-10-05T02:12:38.443Z,100130.88
2022-10-05T02:15:53.217Z,100108.34
2022-10-05T02:19:05.090Z,100131.84
2022-10-05T02:22:28.875Z,100108.97
2022-10-05T02:25:35.438Z,100146.38
2022-10-05T02:28:55.547Z,100150.28
2022-10-05T02:32:04.561Z,100152.34
2022-10-05T02:35:15.744Z,100133.50
2022-10-05T02:38:19.235Z,100150.28
2022-10-05T02:41:44.422Z,100146.59
2022-10-05T02:45:09.550Z,100132.47
2022-10-05T02:48:26.558Z,100139.81
2022-10-05T02:51:40.945Z,100117.50
2022-10-05T02:54:46.106Z,100155.00
2022-10-05T02:58:00.209Z,100153.94
2022-10-05T03:01:16.166Z,100112.19
2022-10-05T03:04:43.390Z,100149.84
2022-10-05T03:07:46.476Z,100145.56
2022-10-05T03:10:48.756Z,100140.25
2022-10-05T03:14:03.239Z,100134.75
2022-10-05T03:17:20.835Z,100130.25
2022-10-05T03:20:39.561Z,100128.81
2022-10-05T03:24:20.985Z,100124.72
2022-10-05T03:27:33.771Z,100114.06
2022-10-05T03:30:50.925Z,100087.88
2022-10-05T03:34:00.657Z,100095.25
2022-10-05T03:37:23.612Z,100136.38
2022-10-05T03:40:44.477Z,100137.38
2022-10-05T03:43:49.661Z,100139.81
2022-10-05T03:47:13.786Z,100143.31
2022-10-05T03:50:45.250Z,100154.13
2022-10-05T03:54:04.010Z,100106.41
2022-10-05T03:57:23.594Z,100156.97
2022-10-05T04:00:30.145Z,100151.88
2022-10-05T04:03:52.886Z,100152.06
2022-10-05T04:06:57.813Z,100151.88
2022-10-05T04:10:03.301Z,100160.03
2022-10-05T04:13:39.922Z,100147.56
2022-10-05T04:16:47.745Z,100153.72
2022-10-05T04:20:04.538Z,100159.84
2022-10-05T04:23:10.610Z,100159.84
2022-10-05T04:26:20.343Z,100152.06
2022-10-05T04:29:58.041Z,100155.72
2022-10-05T04:33:16.101Z,100102.09
2022-10-05T04:41:35.085Z,100165.56
2022-10-05T04:45:01.852Z,100158.38
2022-10-05T04:48:44.610Z,100162.69
2022-10-05T04:52:19.506Z,100125.84
2022-10-05T04:55:54.536Z,100145.75
2022-10-05T04:59:09.510Z,100156.97
2022-10-05T05:02:21.201Z,100147.97
2022-10-05T05:06:16.300Z,100155.72
2022-10-05T05:09:39.414Z,100153.50
2022-10-05T05:12:50.576Z,100144.31
2022-10-05T05:16:23.418Z,100163.31
2022-10-05T05:19:37.610Z,100170.47
2022-10-05T05:23:02.283Z,100164.13
2022-10-05T05:27:00.432Z,100169.44
2022-10-05T05:30:26.305Z,100133.00
2022-10-05T05:33:49.235Z,100163.69
2022-10-05T05:37:59.802Z,100160.44
2022-10-05T05:41:05.691Z,100175.38
2022-10-05T05:44:19.819Z,100155.28
2022-10-05T05:52:40.519Z,100198.66
2022-10-05T05:55:48.485Z,100199.09
2022-10-05T05:59:13.957Z,100197.50
2022-10-05T06:02:21.614Z,100184.00
2022-10-05T06:05:27.402Z,100184.41
2022-10-05T06:08:40.949Z,100238.09
2022-10-05T06:12:13.895Z,100199.38
2022-10-05T06:15:52.347Z,100207.38
2022-10-05T06:19:36.111Z,100254.06
2022-10-05T06:22:44.813Z,100262.06
2022-10-05T06:26:38.323Z,100266.44
2022-10-05T06:29:49.587Z,100252.94
2022-10-05T06:33:03.815Z,100266.66
2022-10-05T06:36:20.989Z,100271.16
2022-10-05T06:39:41.758Z,100271.16
2022-10-05T06:43:01.848Z,100274.22
2022-10-05T06:46:59.723Z,100273.41
2022-10-05T06:50:58.740Z,100270.75
2022-10-05T06:54:34.407Z,100282.84
2022-10-05T06:57:52.277Z,100283.44
2022-10-05T07:01:20.830Z,100288.16
2022-10-05T07:04:26.208Z,100295.72
2022-10-05T07:07:51.430Z,100292.66
2022-10-05T07:11:24.441Z,100294.91
2022-10-05T07:14:33.730Z,100281.38
2022-10-05T07:17:53.292Z,100276.06
2022-10-05T07:21:14.148Z,100283.03
2022-10-05T07:24:42.766Z,100270.34
2022-10-05T07:28:13.210Z,100297.00
2022-10-05T07:31:44.939Z,100289.59
2022-10-05T07:34:55.773Z,100296.97
2022-10-05T07:38:18.807Z,100288.38
2022-10-05T07:41:30.248Z,100290.59
2022-10-05T07:44:44.995Z,100272.59
2022-10-05T07:48:12.683Z,100284.66
2022-10-05T07:51:32.097Z,100283.22
2022-10-05T07:54:57.363Z,100251.06
2022-10-05T07:58:18.628Z,100305.09
2022-10-05T08:01:38.493Z,100300.97
2022-10-05T08:05:26.025Z,100309.38
2022-10-05T08:09:04.816Z,100306.06
2022-10-05T08:12:24.045Z,100299.94
2022-10-05T08:15:31.875Z,100292.72
2022-10-05T08:18:35.906Z,100285.78
2022-10-05T08:21:51.711Z,100262.63
2022-10-05T08:25:03.829Z,100256.28
2022-10-05T08:32:58.322Z,100268.81
2022-10-05T08:36:39.218Z,100258.81
2022-10-05T08:40:06.792Z,100261.25
2022-10-05T08:43:36.595Z,100260.25
2022-10-05T08:47:16.905Z,100261.91
2022-10-05T08:50:22.123Z,100269.28
2022-10-05T08:53:42.503Z,100265.00
2022-10-05T08:57:33.138Z,100264.19
2022-10-05T09:01:15.199Z,100269.69
2022-10-05T09:04:44.186Z,100251.09
2022-10-05T09:08:20.548Z,100247.63
2022-10-05T09:11:47.276Z,100274.03
2022-10-05T09:15:26.002Z,100279.75
2022-10-05T09:19:07.564Z,100287.09
2022-10-05T09:23:19.143Z,100297.34
2022-10-05T09:27:00.678Z,100286.28
2022-10-05T09:30:27.072Z,100295.06
2022-10-05T09:33:43.288Z,100286.50
2022-10-05T09:36:48.179Z,100289.34
2022-10-05T09:40:49.708Z,100278.69
2022-10-05T09:44:05.410Z,100287.31
2022-10-05T09:47:19.884Z,100290.16
2022-10-05T09:50:56.053Z,100290.56
2022-10-05T09:58:29.294Z,100281.19
2022-10-05T10:01:51.830Z,100298.38
2022-10-05T10:05:05.855Z,100292.41
2022-10-05T10:09:04.719Z,100275.25
2022-10-05T10:12:41.925Z,100285.06
2022-10-05T10:21:03.329Z,100293.44
2022-10-05T10:24:39.808Z,100280.94
2022-10-05T10:32:15.331Z,100291.38
2022-10-05T10:35:41.187Z,100290.38
2022-10-05T10:39:22.514Z,100274.00
2022-10-05T10:42:44.198Z,100289.09
2022-10-05T10:45:56.327Z,100289.09
2022-10-05T10:49:47.062Z,100276.78
2022-10-05T10:53:13.968Z,100272.72
2022-10-05T10:56:38.144Z,100294.66
2022-10-05T10:59:58.042Z,100279.06
2022-10-05T11:03:12.113Z,100288.69
2022-10-05T11:06:36.493Z,100297.91
2022-10-05T11:10:03.297Z,100286.03
2022-10-05T11:13:20.541Z,100283.56
2022-10-05T11:16:39.264Z,100285.63
2022-10-05T11:20:15.429Z,100283.56
2022-10-05T11:23:38.901Z,100283.78
2022-10-05T11:31:12.019Z,100265.72
2022-10-05T11:35:00.267Z,100257.72
2022-10-05T11:38:11.248Z,100262.44
2022-10-05T11:41:27.754Z,100263.69
2022-10-05T11:45:08.690Z,100257.72
2022-10-05T11:48:22.621Z,100248.94
2022-10-05T11:51:39.753Z,100246.69
2022-10-05T11:55:13.476Z,100244.59
2022-10-05T11:58:41.256Z,100230.69
2022-10-05T12:02:38.913Z,100230.88
2022-10-05T12:06:27.108Z,100224.97
2022-10-05T12:10:09.796Z,100232.69
2022-10-05T12:13:58.510Z,100235.16
2022-10-05T12:17:31.036Z,100235.78
2022-10-05T12:21:05.452Z,100228.81
2022-10-05T12:24:36.292Z,100232.94
2022-10-05T12:27:44.045Z,100231.69
2022-10-05T12:31:12.207Z,100223.47
2022-10-05T12:34:20.556Z,100225.97
2022-10-05T12:37:37.965Z,100214.88
2022-10-05T12:40:57.390Z,100207.69
2022-10-05T12:44:20.806Z,100203.41
2022-10-05T12:47:44.195Z,100201.97
2022-10-05T12:50:51.321Z,100208.50
2022-10-05T12:54:38.761Z,100191.88
2022-10-05T12:57:53.073Z,100199.69
2022-10-05T13:01:18.432Z,100198.25
2022-10-05T13:04:49.244Z,100203.75
2022-10-05T13:08:00.505Z,100200.06
2022-10-05T13:11:16.940Z,100207.44
2022-10-05T13:14:42.751Z,100202.53
2022-10-05T13:18:13.886Z,100201.91
2022-10-05T13:21:26.809Z,100192.91
2022-10-05T13:24:46.983Z,100188.19
2022-10-05T13:28:26.265Z,100191.44
2022-10-05T13:31:54.313Z,100195.75
2022-10-05T13:35:20.915Z,100193.91
2022-10-05T13:38:36.487Z,100192.66
2022-10-05T13:41:44.827Z,100194.31
2022-10-05T13:45:00.329Z,100185.91
2022-10-05T13:48:27.693Z,100196.16
2022-10-05T13:51:41.656Z,100187.34
2022-10-05T13:54:43.973Z,100198.19
2022-10-05T13:58:05.747Z,100186.75
2022-10-05T14:01:43.929Z,100195.72
2022-10-05T14:04:58.397Z,100193.88
2022-10-05T14:08:04.100Z,100199.41
2022-10-05T14:11:31.316Z,100194.91
2022-10-05T14:14:45.046Z,100194.06
2022-10-05T14:17:47.299Z,100197.56
2022-10-05T14:21:18.958Z,100179.78
2022-10-05T14:24:45.168Z,100180.97
2022-10-05T14:27:58.196Z,100190.44
2022-10-05T14:31:12.798Z,100194.75
2022-10-05T14:34:32.905Z,100190.66
2022-10-05T14:37:53.773Z,100197.88
2022-10-05T14:41:07.833Z,100197.00
2022-10-05T14:44:13.124Z,100188.00
2022-10-05T14:47:20.204Z,100174.72
2022-10-05T14:50:31.447Z,100176.97
2022-10-05T14:53:43.898Z,100181.88
2022-10-05T14:56:53.212Z,100173.66
2022-10-05T15:00:18.670Z,100164.25
2022-10-05T15:03:40.680Z,100170.41
2022-10-05T15:07:04.253Z,100169.56
2022-10-05T15:10:19.200Z,100169.53
2022-10-05T15:13:30.437Z,100143.38
2022-10-05T15:16:40.579Z,100177.94
2022-10-05T15:20:17.162Z,100184.28
2022-10-05T15:23:27.147Z,100179.19
2022-10-05T15:26:55.486Z,100163.38
2022-10-05T15:30:00.639Z,100152.31
2022-10-05T15:33:24.323Z,100149.25
2022-10-05T15:36:35.538Z,100143.38
2022-10-05T15:39:48.966Z,100161.38
2022-10-05T15:42:56.024Z,100156.88
2022-10-05T15:46:11.494Z,100156.69
2022-10-05T15:49:47.522Z,100162.00
2022-10-05T15:53:19.926Z,100158.91
2022-10-05T15:56:35.241Z,100145.44
2022-10-05T16:00:15.988Z,100155.25
2022-10-05T16:03:56.946Z,100159.53
2022-10-05T16:07:20.547Z,100158.34
2022-10-05T16:10:24.183Z,100166.09
2022-10-05T16:13:37.326Z,100161.59
2022-10-05T16:17:19.661Z,100158.56
2022-10-05T16:20:43.239Z,100175.94
2022-10-05T16:23:48.209Z,100173.50
2022-10-05T16:26:58.419Z,100179.84
2022-10-05T16:30:06.078Z,100174.50
2022-10-05T16:33:22.723Z,100176.97
2022-10-05T16:36:31.869Z,100177.38
2022-10-05T16:39:59.716Z,100174.91
2022-10-05T16:43:09.773Z,100179.41
2022-10-05T16:46:40.981Z,100181.50
2022-10-05T16:50:01.362Z,100183.09
2022-10-05T16:53:14.454Z,100191.53
2022-10-05T16:56:25.348Z,100190.91
2022-10-05T17:00:14.952Z,100203.00
2022-10-05T17:03:34.169Z,100211.00
2022-10-05T17:07:17.913Z,100205.47
2022-10-05T17:10:28.741Z,100207.69
2022-10-05T17:13:55.992Z,100213.03
2022-10-05T17:17:30.698Z,100223.88
2022-10-05T17:20:46.439Z,100222.06
2022-10-05T17:24:02.185Z,100219.38
2022-10-05T17:27:15.932Z,100226.34
2022-10-05T17:30:21.819Z,100231.88
2022-10-05T17:33:29.010Z,100220.63
2022-10-05T17:36:41.617Z,100222.47
2022-10-05T17:39:55.492Z,100225.38
2022-10-05T17:43:04.807Z,100224.75
2022-10-05T17:46:09.895Z,100226.97
2022-10-05T17:50:13.908Z,100226.38
2022-10-05T17:53:41.201Z,100232.53
2022-10-05T17:56:49.481Z,100231.47
2022-10-05T17:59:57.423Z,100230.69
2022-10-05T18:03:00.073Z,100224.97
2022-10-05T18:06:29.739Z,100226.00
2022-10-05T18:09:37.637Z,100222.31
2022-10-05T18:13:27.596Z,100229.03
2022-10-05T18:16:59.770Z,100218.81
2022-10-05T18:20:23.913Z,100221.09
2022-10-05T18:23:30.119Z,100226.41
2022-10-05T18:26:59.548Z,100230.72
2022-10-05T18:30:25.960Z,100215.56
2022-10-05T18:33:38.955Z,100235.41
2022-10-05T18:37:08.054Z,100218.22
2022-10-05T18:40:28.189Z,100211.91
2022-10-05T18:43:56.924Z,100216.78
2022-10-05T18:47:45.957Z,100223.94
2022-10-05T18:51:18.657Z,100217.44
2022-10-05T18:54:28.131Z,100215.56
2022-10-05T18:57:40.977Z,100222.34
2022-10-05T19:01:13.385Z,100221.09
2022-10-05T19:04:40.588Z,100222.13
2022-10-05T19:07:59.350Z,100216.63
2022-10-05T19:11:27.947Z,100220.09
2022-10-05T19:14:54.988Z,100222.75
2022-10-05T19:18:18.615Z,100221.72
2022-10-05T19:21:33.073Z,100218.47
2022-10-05T19:24:57.419Z,100222.38
2022-10-05T19:28:23.592Z,100225.84
2022-10-05T19:31:35.062Z,100231.38
2022-10-05T19:35:11.415Z,100224.81
2022-10-05T19:38:29.296Z,100225.22
2022-10-05T19:42:16.341Z,100237.13
2022-10-05T19:45:24.420Z,100233.84
2022-10-05T19:48:48.555Z,100233.84
2022-10-05T19:51:51.445Z,100238.56
2022-10-05T19:55:24.312Z,100238.75
2022-10-05T19:58:29.147Z,100255.78
2022-10-05T20:01:36.880Z,100263.13
2022-10-05T20:04:43.258Z,100243.72
2022-10-05T20:07:45.595Z,100246.75
2022-10-05T20:11:22.654Z,100261.94
2022-10-05T20:14:33.202Z,100262.72
2022-10-05T20:17:53.919Z,100254.56
2022-10-05T20:20:56.626Z,100253.75
2022-10-05T20:24:14.129Z,100262.13
2022-10-05T20:27:36.160Z,100258.88
2022-10-05T20:30:38.332Z,100268.28
2022-10-05T20:33:40.603Z,100256.41
2022-10-05T20:36:44.528Z,100258.47
2022-10-05T20:39:47.974Z,100272.19
2022-10-05T20:42:51.628Z,100261.94
2022-10-05T20:45:53.877Z,100269.53
2022-10-05T20:48:56.112Z,100260.72
2022-10-05T20:51:59.003Z,100250.28
2022-10-05T20:55:01.812Z,100255.00
2022-10-05T20:58:04.107Z,100266.47
2022-10-05T21:01:15.388Z,100256.22
2022-10-05T21:04:26.435Z,100266.47
2022-10-05T21:07:28.759Z,100266.47
2022-10-05T21:10:30.987Z,100249.47
2022-10-05T21:13:33.160Z,100260.50
2022-10-05T21:16:38.338Z,100256.22
2022-10-05T21:19:40.752Z,100249.47
2022-10-05T21:22:43.023Z,100260.94
2022-10-05T21:25:45.504Z,100255.59
2022-10-05T21:28:47.792Z,100264.00
2022-10-05T21:31:50.168Z,100255.59
2022-10-05T21:34:52.469Z,100256.25
2022-10-05T21:37:54.726Z,100253.34
2022-10-05T21:40:57.121Z,100260.31
2022-10-05T21:43:59.363Z,100256.41
2022-10-05T21:47:01.935Z,100261.34
2022-10-05T21:50:05.250Z,100258.25
2022-10-05T21:53:10.300Z,100252.50
2022-10-05T21:56:17.112Z,100256.00
2022-10-05T21:59:26.197Z,100251.50
2022-10-05T22:02:28.556Z,100247.41
2022-10-05T22:05:30.788Z,100239.84
2022-10-05T22:08:34.115Z,100242.50
2022-10-05T22:11:36.592Z,100238.59
2022-10-05T22:14:38.778Z,100238.19
2022-10-05T22:17:41.854Z,100247.19
2022-10-05T22:20:45.278Z,100244.75
2022-10-05T22:23:47.865Z,100230.03
2022-10-05T22:26:51.578Z,100242.28
2022-10-05T22:29:55.517Z,100231.44
2022-10-05T22:32:57.739Z,100230.03
2022-10-05T22:36:00.332Z,100239.63
2022-10-05T22:39:03.158Z,100238.19
2022-10-05T22:42:05.863Z,100240.66
2022-10-05T22:45:08.949Z,100233.88
2022-10-05T22:48:11.251Z,100231.03
2022-10-05T22:51:13.492Z,100218.16
2022-10-05T22:54:15.836Z,100227.97
2022-10-05T22:57:18.212Z,100215.28
2022-10-05T23:00:35.244Z,100213.84
2022-10-05T23:03:43.971Z,100211.59
2022-10-05T23:06:46.158Z,100216.31
2022-10-05T23:09:48.398Z,100209.53
2022-10-05T23:13:00.602Z,100214.25
2022-10-05T23:16:11.455Z,100210.16
2022-10-05T23:19:13.870Z,100205.66
2022-10-05T23:22:16.142Z,100211.19
2022-10-05T23:25:18.573Z,100191.56
2022-10-05T23:28:20.919Z,100188.66
2022-10-05T23:31:26.362Z,100202.59
2022-10-05T23:34:28.556Z,100202.38
2022-10-05T23:37:31.034Z,100202.19
2022-10-05T23:40:33.361Z,100195.63
2022-10-05T23:43:36.817Z,100196.22
2022-10-05T23:46:39.005Z,100194.81
2022-10-05T23:49:41.192Z,100193.38
2022-10-05T23:52:43.394Z,100182.34
2022-10-05T23:55:45.890Z,100195.63
2022-10-05T23:58:48.083Z,100188.88
